0NY6 weather

New York State Police Heliport
Auburn, New York, United States

Public forecast

Using degrees Fahrenheit for public forecast. Weather courtesy of forecast.io.

METAR (pilot weather report)

Closest report is Syracuse Hancock International Airport, 24.9 nm (46.1 km) ENE. Retrieved 2019/05/24 09:54 UTC (37 minutes ago):

KSYR 240954Z 28013G21KT 10SM BKN029 OVC039 14/08 A2990 RMK AO2 SLP121 OVC V BKN T01440083

TAF (pilot weather forecast)

Closest forecast is Syracuse Hancock International Airport, 24.9 nm (46.1 km) ENE. Retrieved 2019/05/24 06:22 UTC (4 hours ago):

TAF KSYR 240520Z 2406/2506 28012KT P6SM SCT060 FM241000 28010G20KT P6SM BKN025 TEMPO 2412/2416 BKN015 FM242200 31006KT P6SM BKN035